sensor_id;sensor_type;location;lat;lon;timestamp;pressure;altitude;pressure_sealevel;temperature;humidity
10462;BME280;5278;42.656;23.374;2023-06-14T00:00:34;94341.00;;;19.21;100.00
10462;BME280;5278;42.656;23.374;2023-06-14T00:03:04;94339.63;;;19.19;100.00
10462;BME280;5278;42.656;23.374;2023-06-14T00:05:35;94342.03;;;19.20;100.00
10462;BME280;5278;42.656;23.374;2023-06-14T00:08:06;94302.84;;;18.96;100.00
10462;BME280;5278;42.656;23.374;2023-06-14T00:10:33;94337.56;;;19.21;100.00
10462;BME280;5278;42.656;23.374;2023-06-14T00:13:00;94333.22;;;19.26;100.00
10462;BME280;5278;42.656;23.374;2023-06-14T00:15:28;94329.09;;;19.19;100.00
10462;BME280;5278;42.656;23.374;2023-06-14T00:17:56;94327.50;;;19.18;100.00
10462;BME280;5278;42.656;23.374;2023-06-14T00:20:26;94339.63;;;19.19;100.00
10462;BME280;5278;42.656;23.374;2023-06-14T00:22:54;94332.00;;;19.17;100.00
10462;BME280;5278;42.656;23.374;2023-06-14T00:25:22;94325.81;;;19.12;100.00
10462;BME280;5278;42.656;23.374;2023-06-14T00:27:49;94254.97;;;18.70;100.00
10462;BME280;5278;42.656;23.374;2023-06-14T00:30:16;94325.81;;;19.12;100.00
10462;BME280;5278;42.656;23.374;2023-06-14T00:32:43;94322.13;;;19.13;100.00
10462;BME280;5278;42.656;23.374;2023-06-14T00:35:10;94318.38;;;19.09;100.00
10462;BME280;5278;42.656;23.374;2023-06-14T00:37:37;94324.44;;;19.09;100.00
10462;BME280;5278;42.656;23.374;2023-06-14T00:40:07;94318.38;;;19.09;100.00
10462;BME280;5278;42.656;23.374;2023-06-14T00:42:34;94326.03;;;19.10;100.00
10462;BME280;5278;42.656;23.374;2023-06-14T00:45:00;94325.47;;;19.08;100.00
10462;BME280;5278;42.656;23.374;2023-06-14T00:47:28;94317.91;;;18.72;100.00
10462;BME280;5278;42.656;23.374;2023-06-14T00:49:55;94312.66;;;19.12;100.00
10462;BME280;5278;42.656;23.374;2023-06-14T00:52:23;94317.44;;;19.15;100.00
10462;BME280;5278;42.656;23.374;2023-06-14T00:54:50;94311.59;;;19.13;100.00
10462;BME280;5278;42.656;23.374;2023-06-14T00:57:19;94307.69;;;19.15;100.00
10462;BME280;5278;42.656;23.374;2023-06-14T00:59:47;94308.50;;;19.16;100.00
10462;BME280;5278;42.656;23.374;2023-06-14T01:02:15;94307.69;;;19.15;100.00
10462;BME280;5278;42.656;23.374;2023-06-14T01:04:45;94310.34;;;19.15;100.00
10462;BME280;5278;42.656;23.374;2023-06-14T01:07:20;94308.97;;;19.13;100.00
10462;BME280;5278;42.656;23.374;2023-06-14T01:09:58;94306.91;;;19.15;100.00
10462;BME280;5278;42.656;23.374;2023-06-14T01:12:35;94309.75;;;19.13;100.00
10462;BME280;5278;42.656;23.374;2023-06-14T01:15:06;94305.66;;;19.17;100.00
10462;BME280;5278;42.656;23.374;2023-06-14T01:17:34;94297.25;;;19.20;100.00
10462;BME280;5278;42.656;23.374;2023-06-14T01:20:11;94306.50;;;19.23;100.00
10462;BME280;5278;42.656;23.374;2023-06-14T01:22:50;94306.19;;;19.19;100.00
10462;BME280;5278;42.656;23.374;2023-06-14T01:25:17;94311.69;;;19.18;100.00
10462;BME280;5278;42.656;23.374;2023-06-14T01:27:47;94307.09;;;19.25;100.00
10462;BME280;5278;42.656;23.374;2023-06-14T01:30:15;94299.66;;;19.22;100.00
10462;BME280;5278;42.656;23.374;2023-06-14T01:32:45;94309.72;;;19.25;100.00
10462;BME280;5278;42.656;23.374;2023-06-14T01:35:13;94301.50;;;19.21;100.00
10462;BME280;5278;42.656;23.374;2023-06-14T01:37:40;94295.66;;;19.19;100.00
10462;BME280;5278;42.656;23.374;2023-06-14T01:40:11;94302.84;;;19.24;100.00
10462;BME280;5278;42.656;23.374;2023-06-14T01:42:38;94302.41;;;19.27;100.00
10462;BME280;5278;42.656;23.374;2023-06-14T01:45:08;94303.97;;;19.28;100.00
10462;BME280;5278;42.656;23.374;2023-06-14T01:47:36;94300.56;;;19.27;100.00
10462;BME280;5278;42.656;23.374;2023-06-14T01:50:04;94295.19;;;19.22;100.00
10462;BME280;5278;42.656;23.374;2023-06-14T01:52:31;94297.03;;;19.22;100.00
10462;BME280;5278;42.656;23.374;2023-06-14T01:54:58;94298.41;;;19.13;100.00
10462;BME280;5278;42.656;23.374;2023-06-14T01:57:29;94300.03;;;19.14;100.00
10462;BME280;5278;42.656;23.374;2023-06-14T01:59:56;94303.25;;;19.16;100.00
10462;BME280;5278;42.656;23.374;2023-06-14T02:02:23;94306.91;;;19.15;100.00
10462;BME280;5278;42.656;23.374;2023-06-14T02:04:52;94313.56;;;19.17;100.00
10462;BME280;5278;42.656;23.374;2023-06-14T02:07:22;94313.19;;;19.14;100.00
10462;BME280;5278;42.656;23.374;2023-06-14T02:09:49;94319.13;;;19.21;100.00
10462;BME280;5278;42.656;23.374;2023-06-14T02:12:17;94200.34;;;18.37;100.00
10462;BME280;5278;42.656;23.374;2023-06-14T02:14:45;94322.72;;;19.15;100.00
10462;BME280;5278;42.656;23.374;2023-06-14T02:17:12;94330.03;;;19.13;100.00
10462;BME280;5278;42.656;23.374;2023-06-14T02:19:39;94327.31;;;19.08;100.00
10462;BME280;5278;42.656;23.374;2023-06-14T02:22:06;94329.06;;;19.02;100.00
10462;BME280;5278;42.656;23.374;2023-06-14T02:24:33;94327.44;;;19.01;100.00
10462;BME280;5278;42.656;23.374;2023-06-14T02:27:00;94332.72;;;19.01;100.00
10462;BME280;5278;42.656;23.374;2023-06-14T02:29:28;94329.28;;;19.01;100.00
10462;BME280;5278;42.656;23.374;2023-06-14T02:31:56;94337.66;;;18.98;100.00
10462;BME280;5278;42.656;23.374;2023-06-14T02:34:23;94341.31;;;18.97;100.00
10462;BME280;5278;42.656;23.374;2023-06-14T02:36:50;94339.38;;;18.92;100.00
10462;BME280;5278;42.656;23.374;2023-06-14T02:39:18;94327.56;;;18.95;100.00
10462;BME280;5278;42.656;23.374;2023-06-14T02:41:46;94333.97;;;18.99;100.00
10462;BME280;5278;42.656;23.374;2023-06-14T02:44:13;94333.41;;;18.97;100.00
10462;BME280;5278;42.656;23.374;2023-06-14T02:46:43;94335.69;;;18.93;100.00
10462;BME280;5278;42.656;23.374;2023-06-14T02:49:12;94334.66;;;18.94;100.00
10462;BME280;5278;42.656;23.374;2023-06-14T02:51:40;94337.66;;;18.98;100.00
10462;BME280;5278;42.656;23.374;2023-06-14T02:54:07;94337.41;;;18.99;100.00
10462;BME280;5278;42.656;23.374;2023-06-14T02:56:35;94343.94;;;18.97;100.00
10462;BME280;5278;42.656;23.374;2023-06-14T02:59:02;94340.19;;;18.92;100.00
10462;BME280;5278;42.656;23.374;2023-06-14T03:01:29;94342.25;;;18.90;100.00
10462;BME280;5278;42.656;23.374;2023-06-14T03:04:00;94345.69;;;18.91;100.00
10462;BME280;5278;42.656;23.374;2023-06-14T03:06:30;94319.75;;;18.71;100.00
10462;BME280;5278;42.656;23.374;2023-06-14T03:08:57;94336.28;;;18.83;100.00
10462;BME280;5278;42.656;23.374;2023-06-14T03:11:25;94345.91;;;18.89;100.00
10462;BME280;5278;42.656;23.374;2023-06-14T03:13:52;94340.19;;;18.92;100.00
10462;BME280;5278;42.656;23.374;2023-06-14T03:16:20;94345.78;;;18.96;100.00
10462;BME280;5278;42.656;23.374;2023-06-14T03:18:49;94347.84;;;18.94;100.00
10462;BME280;5278;42.656;23.374;2023-06-14T03:21:16;94355.03;;;18.99;100.00
10462;BME280;5278;42.656;23.374;2023-06-14T03:23:45;94350.13;;;19.02;100.00
10462;BME280;5278;42.656;23.374;2023-06-14T03:26:12;94354.13;;;19.05;100.00
10462;BME280;5278;42.656;23.374;2023-06-14T03:28:40;94347.91;;;19.11;100.00
10462;BME280;5278;42.656;23.374;2023-06-14T03:31:07;94342.88;;;19.09;100.00
10462;BME280;5278;42.656;23.374;2023-06-14T03:33:34;94354.31;;;19.15;100.00
10462;BME280;5278;42.656;23.374;2023-06-14T03:36:02;94358.78;;;19.14;100.00
10462;BME280;5278;42.656;23.374;2023-06-14T03:38:29;94358.78;;;19.14;100.00
10462;BME280;5278;42.656;23.374;2023-06-14T03:40:57;94348.63;;;19.06;100.00
10462;BME280;5278;42.656;23.374;2023-06-14T03:43:24;94361.63;;;19.13;100.00
10462;BME280;5278;42.656;23.374;2023-06-14T03:45:51;94360.97;;;19.17;100.00
10462;BME280;5278;42.656;23.374;2023-06-14T03:48:19;94361.72;;;19.18;100.00
10462;BME280;5278;42.656;23.374;2023-06-14T03:50:46;94348.56;;;19.18;100.00
10462;BME280;5278;42.656;23.374;2023-06-14T03:53:13;94365.06;;;19.25;100.00
10462;BME280;5278;42.656;23.374;2023-06-14T03:55:40;94363.78;;;19.27;100.00
10462;BME280;5278;42.656;23.374;2023-06-14T03:58:08;94358.75;;;19.26;100.00
10462;BME280;5278;42.656;23.374;2023-06-14T04:00:35;94372.44;;;19.40;100.00
10462;BME280;5278;42.656;23.374;2023-06-14T04:03:02;94369.38;;;19.31;100.00
10462;BME280;5278;42.656;23.374;2023-06-14T04:05:31;94373.38;;;19.33;100.00
10462;BME280;5278;42.656;23.374;2023-06-14T04:07:58;94372.66;;;19.38;100.00
10462;BME280;5278;42.656;23.374;2023-06-14T04:10:26;94372.66;;;19.38;100.00
10462;BME280;5278;42.656;23.374;2023-06-14T04:12:53;94373.25;;;19.40;100.00
10462;BME280;5278;42.656;23.374;2023-06-14T04:15:22;94373.38;;;19.45;100.00
10462;BME280;5278;42.656;23.374;2023-06-14T04:17:49;94372.44;;;19.51;100.00
10462;BME280;5278;42.656;23.374;2023-06-14T04:20:16;94377.00;;;19.56;100.00
10462;BME280;5278;42.656;23.374;2023-06-14T04:22:43;94359.09;;;19.58;100.00
10462;BME280;5278;42.656;23.374;2023-06-14T04:25:10;94351.75;;;19.60;100.00
10462;BME280;5278;42.656;23.374;2023-06-14T04:27:37;94374.47;;;19.77;100.00
10462;BME280;5278;42.656;23.374;2023-06-14T04:30:06;94368.91;;;19.91;100.00
10462;BME280;5278;42.656;23.374;2023-06-14T04:32:34;94367.00;;;20.03;100.00
10462;BME280;5278;42.656;23.374;2023-06-14T04:35:04;94363.50;;;20.14;100.00
10462;BME280;5278;42.656;23.374;2023-06-14T04:37:31;94366.69;;;20.16;99.70
10462;BME280;5278;42.656;23.374;2023-06-14T04:39:58;94376.38;;;20.27;98.62
10462;BME280;5278;42.656;23.374;2023-06-14T04:42:26;94372.16;;;20.43;98.79
10462;BME280;5278;42.656;23.374;2023-06-14T04:44:57;94359.44;;;20.56;98.08
10462;BME280;5278;42.656;23.374;2023-06-14T04:47:24;94366.78;;;20.71;96.85
10462;BME280;5278;42.656;23.374;2023-06-14T04:49:57;94368.97;;;20.79;95.67
10462;BME280;5278;42.656;23.374;2023-06-14T04:52:26;94362.16;;;20.83;95.37
10462;BME280;5278;42.656;23.374;2023-06-14T04:54:55;94375.78;;;20.92;94.34
10462;BME280;5278;42.656;23.374;2023-06-14T04:57:22;94384.31;;;20.99;94.35
10462;BME280;5278;42.656;23.374;2023-06-14T04:59:50;94385.66;;;21.01;94.20
10462;BME280;5278;42.656;23.374;2023-06-14T05:02:21;94382.81;;;21.08;93.88
10462;BME280;5278;42.656;23.374;2023-06-14T05:04:49;94388.78;;;21.15;93.85
10462;BME280;5278;42.656;23.374;2023-06-14T05:07:17;94392.47;;;21.14;91.88
10462;BME280;5278;42.656;23.374;2023-06-14T05:09:45;94393.63;;;21.23;91.88
10462;BME280;5278;42.656;23.374;2023-06-14T05:12:14;94388.97;;;21.30;90.98
10462;BME280;5278;42.656;23.374;2023-06-14T05:14:43;94389.09;;;21.40;90.22
10462;BME280;5278;42.656;23.374;2023-06-14T05:17:12;94391.56;;;21.52;89.87
10462;BME280;5278;42.656;23.374;2023-06-14T05:19:39;94396.75;;;21.64;88.90
10462;BME280;5278;42.656;23.374;2023-06-14T05:22:06;94399.53;;;21.79;86.72
10462;BME280;5278;42.656;23.374;2023-06-14T05:24:34;94381.81;;;21.79;86.17
10462;BME280;5278;42.656;23.374;2023-06-14T05:27:01;94395.56;;;22.03;85.88
10462;BME280;5278;42.656;23.374;2023-06-14T05:29:28;94398.56;;;22.12;85.40
10462;BME280;5278;42.656;23.374;2023-06-14T05:31:55;94412.69;;;22.22;85.47
10462;BME280;5278;42.656;23.374;2023-06-14T05:34:22;94409.31;;;22.32;85.82
10462;BME280;5278;42.656;23.374;2023-06-14T05:36:49;94408.66;;;22.47;84.72
10462;BME280;5278;42.656;23.374;2023-06-14T05:39:16;94418.63;;;22.66;84.73
10462;BME280;5278;42.656;23.374;2023-06-14T05:41:45;94406.00;;;22.79;84.34
10462;BME280;5278;42.656;23.374;2023-06-14T05:44:12;94395.31;;;22.68;83.33
10462;BME280;5278;42.656;23.374;2023-06-14T05:46:39;94418.06;;;22.96;82.86
10462;BME280;5278;42.656;23.374;2023-06-14T05:49:06;94415.78;;;23.15;81.47
10462;BME280;5278;42.656;23.374;2023-06-14T05:51:34;94417.44;;;23.26;80.40
10462;BME280;5278;42.656;23.374;2023-06-14T05:54:01;94398.88;;;23.31;78.86
10462;BME280;5278;42.656;23.374;2023-06-14T05:56:28;94424.75;;;23.56;78.44
10462;BME280;5278;42.656;23.374;2023-06-14T05:58:57;94426.91;;;23.74;78.02
10462;BME280;5278;42.656;23.374;2023-06-14T06:01:24;94425.13;;;23.95;77.30
10462;BME280;5278;42.656;23.374;2023-06-14T06:03:51;94418.00;;;24.11;75.90
10462;BME280;5278;42.656;23.374;2023-06-14T06:06:18;94411.88;;;24.15;74.80
10462;BME280;5278;42.656;23.374;2023-06-14T06:08:46;94416.94;;;24.17;75.52
10462;BME280;5278;42.656;23.374;2023-06-14T06:11:13;94421.75;;;24.35;75.21
10462;BME280;5278;42.656;23.374;2023-06-14T06:13:40;94424.94;;;24.67;73.99
10462;BME280;5278;42.656;23.374;2023-06-14T06:16:08;94420.16;;;25.05;71.90
10462;BME280;5278;42.656;23.374;2023-06-14T06:18:35;94414.22;;;25.28;69.78
10462;BME280;5278;42.656;23.374;2023-06-14T06:21:03;94407.28;;;25.37;68.11
10462;BME280;5278;42.656;23.374;2023-06-14T06:23:30;94415.78;;;25.44;67.24
10462;BME280;5278;42.656;23.374;2023-06-14T06:25:57;94420.53;;;25.52;67.62
10462;BME280;5278;42.656;23.374;2023-06-14T06:28:24;94421.34;;;25.53;66.93
10462;BME280;5278;42.656;23.374;2023-06-14T06:30:51;94422.13;;;25.53;66.84
10462;BME280;5278;42.656;23.374;2023-06-14T06:33:21;94419.72;;;25.52;66.62
10462;BME280;5278;42.656;23.374;2023-06-14T06:35:48;94422.75;;;25.30;67.21
10462;BME280;5278;42.656;23.374;2023-06-14T06:38:15;94402.06;;;24.97;67.79
10462;BME280;5278;42.656;23.374;2023-06-14T06:40:44;94429.47;;;24.97;67.30
10462;BME280;5278;42.656;23.374;2023-06-14T06:43:11;94439.28;;;24.86;67.92
10462;BME280;5278;42.656;23.374;2023-06-14T06:45:39;94435.56;;;24.72;70.09
10462;BME280;5278;42.656;23.374;2023-06-14T06:48:05;94431.84;;;24.78;76.43
10462;BME280;5278;42.656;23.374;2023-06-14T06:50:36;94433.47;;;25.05;74.77
10462;BME280;5278;42.656;23.374;2023-06-14T06:53:03;94438.72;;;25.25;73.41
10462;BME280;5278;42.656;23.374;2023-06-14T06:55:30;94426.44;;;25.44;72.01
10462;BME280;5278;42.656;23.374;2023-06-14T06:57:58;94433.03;;;25.62;70.55
10462;BME280;5278;42.656;23.374;2023-06-14T07:00:25;94433.78;;;25.78;69.25
10462;BME280;5278;42.656;23.374;2023-06-14T07:02:53;94415.13;;;25.78;68.28
10462;BME280;5278;42.656;23.374;2023-06-14T07:05:20;94437.09;;;26.03;68.90
10462;BME280;5278;42.656;23.374;2023-06-14T07:07:49;94409.66;;;26.03;74.38
10462;BME280;5278;42.656;23.374;2023-06-14T07:10:16;94429.50;;;26.31;73.93
10462;BME280;5278;42.656;23.374;2023-06-14T07:12:43;94433.16;;;26.45;72.84
10462;BME280;5278;42.656;23.374;2023-06-14T07:15:11;94427.97;;;26.59;71.48
10462;BME280;5278;42.656;23.374;2023-06-14T07:17:38;94388.53;;;26.55;69.55
10462;BME280;5278;42.656;23.374;2023-06-14T07:20:08;94403.38;;;26.95;67.82
10462;BME280;5278;42.656;23.374;2023-06-14T07:22:39;94417.97;;;27.32;64.79
10462;BME280;5278;42.656;23.374;2023-06-14T07:25:09;94401.97;;;27.56;62.57
10462;BME280;5278;42.656;23.374;2023-06-14T07:27:39;94417.59;;;27.86;60.88
10462;BME280;5278;42.656;23.374;2023-06-14T07:30:07;94414.72;;;28.01;58.69
10462;BME280;5278;42.656;23.374;2023-06-14T07:32:35;94419.69;;;28.13;57.38
10462;BME280;5278;42.656;23.374;2023-06-14T07:35:02;94409.75;;;28.51;56.66
10462;BME280;5278;42.656;23.374;2023-06-14T07:37:30;94388.75;;;29.23;55.00
10462;BME280;5278;42.656;23.374;2023-06-14T07:39:59;94410.59;;;30.34;50.55
10462;BME280;5278;42.656;23.374;2023-06-14T07:42:29;94403.97;;;30.54;48.16
10462;BME280;5278;42.656;23.374;2023-06-14T07:44:58;94409.94;;;30.15;48.19
10462;BME280;5278;42.656;23.374;2023-06-14T07:47:25;94406.44;;;29.78;49.56
10462;BME280;5278;42.656;23.374;2023-06-14T07:49:51;94408.78;;;29.80;49.06
10462;BME280;5278;42.656;23.374;2023-06-14T07:52:18;94416.44;;;29.59;50.17
10462;BME280;5278;42.656;23.374;2023-06-14T07:54:45;94423.78;;;29.40;50.56
10462;BME280;5278;42.656;23.374;2023-06-14T07:57:13;94424.72;;;29.17;50.44
10462;BME280;5278;42.656;23.374;2023-06-14T07:59:41;94430.81;;;28.90;51.61
10462;BME280;5278;42.656;23.374;2023-06-14T08:02:08;94424.63;;;28.76;51.43
10462;BME280;5278;42.656;23.374;2023-06-14T08:04:35;94427.66;;;28.88;52.74
10462;BME280;5278;42.656;23.374;2023-06-14T08:07:04;94427.97;;;29.00;51.70
10462;BME280;5278;42.656;23.374;2023-06-14T08:09:31;94426.56;;;29.35;50.38
10462;BME280;5278;42.656;23.374;2023-06-14T08:11:58;94445.06;;;29.91;49.03
10462;BME280;5278;42.656;23.374;2023-06-14T08:14:25;94433.69;;;30.21;48.61
10462;BME280;5278;42.656;23.374;2023-06-14T08:16:53;94441.50;;;30.67;47.00
10462;BME280;5278;42.656;23.374;2023-06-14T08:19:20;94435.41;;;31.29;45.40
10462;BME280;5278;42.656;23.374;2023-06-14T08:21:48;94436.75;;;32.27;41.94
10462;BME280;5278;42.656;23.374;2023-06-14T08:24:16;94438.75;;;33.34;40.31
10462;BME280;5278;42.656;23.374;2023-06-14T08:26:44;94445.44;;;33.65;38.53
10462;BME280;5278;42.656;23.374;2023-06-14T08:29:11;94444.28;;;33.37;38.85
10462;BME280;5278;42.656;23.374;2023-06-14T08:31:38;94443.72;;;32.80;39.54
10462;BME280;5278;42.656;23.374;2023-06-14T08:34:07;94449.53;;;32.13;41.33
10462;BME280;5278;42.656;23.374;2023-06-14T08:36:35;94449.88;;;31.72;42.53
10462;BME280;5278;42.656;23.374;2023-06-14T08:39:04;94446.91;;;31.43;43.03
10462;BME280;5278;42.656;23.374;2023-06-14T08:41:31;94444.41;;;31.24;43.05
10462;BME280;5278;42.656;23.374;2023-06-14T08:43:59;94439.16;;;31.19;43.85
10462;BME280;5278;42.656;23.374;2023-06-14T08:46:26;94431.97;;;31.28;43.09
10462;BME280;5278;42.656;23.374;2023-06-14T08:48:55;94440.53;;;31.70;41.36
10462;BME280;5278;42.656;23.374;2023-06-14T08:51:25;94440.38;;;32.48;38.43
10462;BME280;5278;42.656;23.374;2023-06-14T08:53:53;94425.50;;;32.51;37.63
10462;BME280;5278;42.656;23.374;2023-06-14T08:56:25;94435.78;;;32.23;38.08
10462;BME280;5278;42.656;23.374;2023-06-14T08:58:53;94437.63;;;32.05;39.96
10462;BME280;5278;42.656;23.374;2023-06-14T09:01:22;94433.91;;;32.75;39.37
10462;BME280;5278;42.656;23.374;2023-06-14T09:03:50;94433.28;;;32.53;39.74
10462;BME280;5278;42.656;23.374;2023-06-14T09:06:17;94430.59;;;32.53;39.48
10462;BME280;5278;42.656;23.374;2023-06-14T09:08:50;94430.09;;;32.25;40.31
10462;BME280;5278;42.656;23.374;2023-06-14T09:11:18;94440.63;;;32.04;40.83
10462;BME280;5278;42.656;23.374;2023-06-14T09:13:46;94428.00;;;32.13;41.44
10462;BME280;5278;42.656;23.374;2023-06-14T09:16:13;94423.13;;;32.41;40.24
10462;BME280;5278;42.656;23.374;2023-06-14T09:18:42;94425.00;;;32.23;40.95
10462;BME280;5278;42.656;23.374;2023-06-14T09:21:10;94418.72;;;31.80;41.64
10462;BME280;5278;42.656;23.374;2023-06-14T09:23:39;94425.97;;;31.62;42.80
10462;BME280;5278;42.656;23.374;2023-06-14T09:26:08;94429.19;;;31.42;43.58
10462;BME280;5278;42.656;23.374;2023-06-14T09:28:37;94420.09;;;30.98;44.76
10462;BME280;5278;42.656;23.374;2023-06-14T09:31:07;94412.22;;;30.57;45.60
10462;BME280;5278;42.656;23.374;2023-06-14T09:33:35;94424.03;;;30.20;46.20
10462;BME280;5278;42.656;23.374;2023-06-14T09:36:02;94405.81;;;29.81;46.25
10462;BME280;5278;42.656;23.374;2023-06-14T09:38:30;94421.22;;;29.62;47.46
10462;BME280;5278;42.656;23.374;2023-06-14T09:40:58;94418.94;;;29.56;48.00
10462;BME280;5278;42.656;23.374;2023-06-14T09:43:26;94414.47;;;29.51;49.20
10462;BME280;5278;42.656;23.374;2023-06-14T09:45:54;94409.31;;;29.41;48.38
10462;BME280;5278;42.656;23.374;2023-06-14T09:48:21;94415.28;;;29.51;48.62
10462;BME280;5278;42.656;23.374;2023-06-14T09:50:50;94414.69;;;29.68;47.90
10462;BME280;5278;42.656;23.374;2023-06-14T09:53:20;94404.13;;;29.85;46.93
10462;BME280;5278;42.656;23.374;2023-06-14T09:55:49;94404.16;;;29.72;47.24
10462;BME280;5278;42.656;23.374;2023-06-14T09:58:16;94394.31;;;29.40;48.13
10462;BME280;5278;42.656;23.374;2023-06-14T10:00:50;94397.97;;;29.30;48.77
10462;BME280;5278;42.656;23.374;2023-06-14T10:03:21;94397.59;;;29.23;48.76
10462;BME280;5278;42.656;23.374;2023-06-14T10:05:51;94396.72;;;29.55;48.59
10462;BME280;5278;42.656;23.374;2023-06-14T10:08:20;94393.75;;;31.40;43.87
10462;BME280;5278;42.656;23.374;2023-06-14T10:10:51;94384.69;;;33.68;38.64
10462;BME280;5278;42.656;23.374;2023-06-14T10:13:18;94379.03;;;35.88;34.09
10462;BME280;5278;42.656;23.374;2023-06-14T10:15:54;94378.63;;;37.53;31.38
10462;BME280;5278;42.656;23.374;2023-06-14T10:18:31;94377.88;;;38.53;28.18
10462;BME280;5278;42.656;23.374;2023-06-14T10:21:05;94365.81;;;39.54;27.00
10462;BME280;5278;42.656;23.374;2023-06-14T10:23:37;94365.47;;;40.08;26.09
10462;BME280;5278;42.656;23.374;2023-06-14T10:26:07;94359.75;;;40.17;25.91
10462;BME280;5278;42.656;23.374;2023-06-14T10:28:37;94364.59;;;41.23;25.15
10462;BME280;5278;42.656;23.374;2023-06-14T10:31:08;94367.31;;;41.23;23.71
10462;BME280;5278;42.656;23.374;2023-06-14T10:33:40;94363.59;;;39.63;25.75
10462;BME280;5278;42.656;23.374;2023-06-14T10:36:28;94365.81;;;39.54;26.16
10462;BME280;5278;42.656;23.374;2023-06-14T10:39:00;94367.41;;;40.08;24.64
10462;BME280;5278;42.656;23.374;2023-06-14T10:41:28;94367.84;;;39.83;24.96
10462;BME280;5278;42.656;23.374;2023-06-14T10:44:38;94357.19;;;39.52;26.13
10462;BME280;5278;42.656;23.374;2023-06-14T10:47:09;94361.94;;;38.17;26.95
10462;BME280;5278;42.656;23.374;2023-06-14T10:49:38;94345.31;;;37.21;28.41
10462;BME280;5278;42.656;23.374;2023-06-14T10:52:17;94341.91;;;37.39;28.27
10462;BME280;5278;42.656;23.374;2023-06-14T10:55:03;94350.72;;;37.99;27.05
10462;BME280;5278;42.656;23.374;2023-06-14T10:57:32;94329.00;;;38.18;27.59
10462;BME280;5278;42.656;23.374;2023-06-14T10:59:59;94343.75;;;38.56;27.14
10462;BME280;5278;42.656;23.374;2023-06-14T11:02:47;94294.88;;;37.67;27.30
10462;BME280;5278;42.656;23.374;2023-06-14T11:05:23;94332.38;;;37.45;28.10
10462;BME280;5278;42.656;23.374;2023-06-14T11:08:04;94338.91;;;36.70;29.04
10462;BME280;5278;42.656;23.374;2023-06-14T11:10:39;94332.59;;;35.61;30.87
10462;BME280;5278;42.656;23.374;2023-06-14T11:13:08;94337.56;;;34.90;31.77
10462;BME280;5278;42.656;23.374;2023-06-14T11:15:36;94335.44;;;34.30;32.98
10462;BME280;5278;42.656;23.374;2023-06-14T11:18:07;94324.50;;;34.05;33.69
10462;BME280;5278;42.656;23.374;2023-06-14T11:20:35;94325.72;;;33.58;33.68
10462;BME280;5278;42.656;23.374;2023-06-14T11:23:04;94256.69;;;32.69;35.67
10462;BME280;5278;42.656;23.374;2023-06-14T11:25:31;94324.50;;;32.71;35.34
10462;BME280;5278;42.656;23.374;2023-06-14T11:27:58;94322.63;;;32.37;36.79
10462;BME280;5278;42.656;23.374;2023-06-14T11:30:25;94296.31;;;31.74;37.32
10462;BME280;5278;42.656;23.374;2023-06-14T11:32:53;94321.03;;;31.93;37.04
10462;BME280;5278;42.656;23.374;2023-06-14T11:35:23;94326.56;;;31.88;37.89
10462;BME280;5278;42.656;23.374;2023-06-14T11:37:52;94250.19;;;31.15;37.38
10462;BME280;5278;42.656;23.374;2023-06-14T11:40:23;94325.56;;;31.58;37.91
10462;BME280;5278;42.656;23.374;2023-06-14T11:42:58;94323.41;;;32.03;37.83
10462;BME280;5278;42.656;23.374;2023-06-14T11:45:25;94315.63;;;32.10;37.54
10462;BME280;5278;42.656;23.374;2023-06-14T11:47:55;94315.81;;;32.14;37.13
10462;BME280;5278;42.656;23.374;2023-06-14T11:50:24;94311.72;;;32.16;35.34
10462;BME280;5278;42.656;23.374;2023-06-14T11:52:53;94302.84;;;32.33;34.93
10462;BME280;5278;42.656;23.374;2023-06-14T11:55:20;94303.91;;;31.89;36.24
10462;BME280;5278;42.656;23.374;2023-06-14T11:57:48;94303.34;;;31.44;37.90
10462;BME280;5278;42.656;23.374;2023-06-14T12:00:16;94294.03;;;31.33;38.04
10462;BME280;5278;42.656;23.374;2023-06-14T12:02:52;94290.50;;;31.15;38.40
10462;BME280;5278;42.656;23.374;2023-06-14T12:05:20;94265.69;;;30.78;38.01
10462;BME280;5278;42.656;23.374;2023-06-14T12:07:50;94284.78;;;31.08;38.87
10462;BME280;5278;42.656;23.374;2023-06-14T12:10:18;94282.59;;;31.18;39.59
10462;BME280;5278;42.656;23.374;2023-06-14T12:12:46;94278.19;;;30.83;38.26
10462;BME280;5278;42.656;23.374;2023-06-14T12:15:12;94268.72;;;30.86;38.78
10462;BME280;5278;42.656;23.374;2023-06-14T12:17:39;94283.75;;;30.95;39.38
10462;BME280;5278;42.656;23.374;2023-06-14T12:20:10;94276.72;;;30.68;38.93
10462;BME280;5278;42.656;23.374;2023-06-14T12:22:39;94275.09;;;30.36;39.61
10462;BME280;5278;42.656;23.374;2023-06-14T12:25:26;94272.47;;;30.23;40.35
10462;BME280;5278;42.656;23.374;2023-06-14T12:27:57;94278.13;;;29.99;42.00
10462;BME280;5278;42.656;23.374;2023-06-14T12:30:26;94272.22;;;29.88;42.70
10462;BME280;5278;42.656;23.374;2023-06-14T12:32:53;94264.03;;;29.71;42.54
10462;BME280;5278;42.656;23.374;2023-06-14T12:35:20;94245.16;;;29.40;43.51
10462;BME280;5278;42.656;23.374;2023-06-14T12:37:46;94270.56;;;29.43;43.29
10462;BME280;5278;42.656;23.374;2023-06-14T12:40:14;94264.63;;;29.19;43.57
10462;BME280;5278;42.656;23.374;2023-06-14T12:42:45;94256.38;;;29.01;44.16
10462;BME280;5278;42.656;23.374;2023-06-14T12:45:14;94257.97;;;29.02;45.00
10462;BME280;5278;42.656;23.374;2023-06-14T12:47:41;94246.06;;;28.95;44.75
10462;BME280;5278;42.656;23.374;2023-06-14T12:50:08;94243.72;;;28.93;45.33
10462;BME280;5278;42.656;23.374;2023-06-14T12:52:36;94254.19;;;28.90;45.91
10462;BME280;5278;42.656;23.374;2023-06-14T12:55:04;94245.25;;;28.67;46.10
10462;BME280;5278;42.656;23.374;2023-06-14T12:57:31;94249.00;;;28.52;45.82
10462;BME280;5278;42.656;23.374;2023-06-14T13:00:00;94239.97;;;28.35;45.42
10462;BME280;5278;42.656;23.374;2023-06-14T13:02:27;94253.72;;;28.28;45.65
10462;BME280;5278;42.656;23.374;2023-06-14T13:04:54;94240.91;;;28.11;46.00